• Join FlightAware (Why Join?)
  • Login
  • US Flag 
09:34PM EDT


 

Airport Tracker/Info


-or-


 

Live Flight TrackerFlight Track Log ✈ SKW2632 ✈ 27-Jul-2013 ✈ KLAX - KPHX

Flight Track Log - Related Links

Times and Time Zones

All times are in EDT time to prevent confusion due to time zone crossing. See the SKW2632 flight status page for this flight to view local times or setup timezone preferences in your user account.

Time Position Orientation Groundspeed Altitude Reporting Facility
EDT Latitude Longitude Course Direction KTS MPH feet Rate Location/Type
07:10PM 33.9153 -118.4767 90° East 217 250 2,300  Level Los Angeles Center
07:11PM 33.8808 -118.5281 231° Southwest 251 289 4,100 2,040 Climbing Los Angeles Center
07:12PM 33.8031 -118.5486 192° South 275 316 6,500 2,460 Climbing Los Angeles Center
07:13PM 33.7125 -118.5247 168° South 282 325 9,300 2,220 Climbing Los Angeles Center
07:14PM 33.6736 -118.4400 119° Southeast 300 345 11,200 1,440 Climbing Los Angeles Center
07:15PM 33.6333 -118.2290 90° East  Level FlightAware Approximate
07:15PM 33.6442 -118.3275 107° East 326 375 12,300  Level Los Angeles Center
07:16PM 33.6442 -118.2022 90° East 348 400 14,100 1,560 Climbing Los Angeles Center
07:17PM 33.6436 -118.0592 90° East 359 413 15,900 1,560 Climbing Los Angeles Center
07:18PM 33.6431 -117.9392 90° East 362 417 17,400 1,320 Climbing Los Angeles Center
07:19PM 33.6431 -117.8158 90° East 369 425 18,700 1,080 Climbing Los Angeles Center
07:20PM 33.6422 -117.6906 90° East 377 434 19,700 960 Climbing Los Angeles Center
07:21PM 33.6414 -117.5619 90° East 386 444 20,700 960 Climbing Los Angeles Center
07:22PM 33.6414 -117.4314 90° East 392 451 21,700 840 Climbing Los Angeles Center
07:23PM 33.6408 -117.3011 90° East 392 451 22,700 1,020 Climbing Los Angeles Center
07:24PM 33.6397 -117.1175 90° East 394 453 24,100 1,020 Climbing Los Angeles Center
07:25PM 33.6386 -116.9869 91° East 393 452 24,900 600 Climbing Los Angeles Center
07:26PM 33.6372 -116.8522 91° East 402 463 25,400 480 Climbing Los Angeles Center
07:27PM 33.6350 -116.7172 91° East 411 473 25,900 480 Climbing Los Angeles Center
07:28PM 33.6353 -116.5786 90° East 413 475 26,400 480 Climbing Los Angeles Center
07:30PM 33.6317 -116.4372 92° East 420 483 26,900 480 Climbing Los Angeles Center
07:31PM 33.6297 -116.2931 91° East 427 491 27,400 480 Climbing Los Angeles Center
07:32PM 33.6269 -116.1242 91° East 423 487 28,000 480 Climbing Los Angeles Center
07:33PM 33.6242 -115.9822 91° East 424 488 28,500 480 Climbing Los Angeles Center
07:34PM 33.6208 -115.8122 91° East 425 489 29,100 480 Climbing Los Angeles Center
07:35PM 33.6169 -115.6706 92° East 423 487 29,600 480 Climbing Los Angeles Center
07:36PM 33.6147 -115.5289 91° East 424 488 30,100 480 Climbing Los Angeles Center
07:37PM 33.6097 -115.3872 92° East 425 489 30,600 420 Climbing Los Angeles Center
07:38PM 33.5925 -115.2492 98° East 420 483 31,000 180 Climbing Los Angeles Center
07:39PM 33.5744 -115.0814 97° East 424 488 31,000  Level Los Angeles Center
07:40PM 33.5583 -114.9383 98° East 433 498 31,000  Level Los Angeles Center
07:41PM 33.5419 -114.7925 98° East 441 507 31,000  Level Los Angeles Center
07:42PM 33.5306 -114.6772 97° East 437 503 31,000  Level Los Angeles Center
07:43PM 33.5111 -114.5025 98° East 442 509 31,000 -960 Level Los Angeles Center
07:44PM 33.4931 -114.3517 98° East 461 531 29,100 -2,100 Descending Los Angeles Center
07:45PM 33.4747 -114.1994 98° East 463 533 26,700 -2,040 Descending Los Angeles Center
07:46PM 33.4567 -114.0547 98° East 444 511 25,000 -900 Descending Los Angeles Center
07:47PM 33.4261 -113.8981 103° East 425 489 24,900 -480 Descending Albuquerque Center
07:48PM 33.3992 -113.7606 103° East 424 488 24,000 -1,140 Descending Albuquerque Center
07:49PM 33.3711 -113.6267 104° East 419 482 22,600 -1,380 Descending Albuquerque Center
07:50PM 33.3450 -113.4944 103° East 412 474 21,200 -1,500 Descending Albuquerque Center
07:51PM 33.3128 -113.3422 104° East 398 458 19,600 -1,260 Descending Albuquerque Center
07:52PM 33.2864 -113.2169 104° East 391 450 18,700 -1,140 Descending Albuquerque Center
07:53PM 33.2744 -113.0931 97° East 382 440 17,300 -1,200 Descending Albuquerque Center
07:54PM 33.2767 -112.9731 89° East 367 422 16,300 -1,020 Descending Albuquerque Center
07:55PM 33.2786 -112.8556 89° East 358 412 15,300 -660 Descending Albuquerque Center
07:56PM 33.2806 -112.7464 89° East 339 390 15,000 -360 Descending Albuquerque Center
07:57PM 33.2831 -112.6381 88° East 329 379 14,600 -1,020 Descending Albuquerque Center
07:59PM 33.2869 -112.5192 88° East 320 368 13,000 -1,440 Descending Albuquerque Center
08:00PM 33.2897 -112.4114 88° East 326 375 11,700 -1,260 Descending Albuquerque Center
08:01PM 33.2936 -112.3106 87° East 308 354 10,500 -1,320 Descending Albuquerque Center
08:02PM 33.3019 -112.2103 84° East 304 350 9,100 -780 Descending Albuquerque Center
08:03PM 33.3089 -112.1211 85° East 275 316 9,000 -420 Descending Albuquerque Center
08:04PM 33.3247 -112.0386 77° East 259 298 8,300 -960 Descending Albuquerque Center
08:05PM 33.3444 -111.9603 73° East 248 285 7,100 -1,080 Descending Albuquerque Center
08:06PM 33.3450 -111.8778 90° East 250 288 6,200 -1,080 Descending Albuquerque Center
08:07PM 33.4047 -111.8275 35° Northeast 239 275 4,900 -1,560 Descending Albuquerque Center
08:08PM 33.4289 -111.8886 295° West 223 257 3,100 -1,440 Descending Albuquerque Center
08:09PM 33.4333 -111.9667 274° West 157 181 1,800 -1,140 Descending Phoenix TRACON